Time;durP1;ratioP1;P1;durP2;ratioP2;P2;SDS_P1;SDS_P2;PMS_P1;PMS_P2;Temp;Humidity;BMP_temperature;BMP_pressure;BME280_temperature;BME280_humidity;BME280_pressure;Samples;Min_cycle;Max_cycle;Signal;HPM_P1;HPM_P2
2022/10/05 00:02:18;;;;;;;;;;;;;;;15.40;100.00;-15949.38;5000984;28;19925;-80
2022/10/05 00:04:45;;;;;;;;;;;;;;;15.40;100.00;-14960.09;5001337;28;20035;-80
2022/10/05 00:07:42;;;;;;;;;;;;;;;15.36;100.00;-14959.66;5036105;28;19921;-84
2022/10/05 00:10:16;;;;;;;;;;;;;;;15.35;100.00;-14959.47;5023533;28;19913;-85
2022/10/05 00:12:57;;;;;;;;;;;;;;;15.39;100.00;-14960.03;5007748;28;19988;-85
2022/10/05 00:15:22;;;;;;;;;;;;;;;15.29;100.00;-15618.22;5009850;28;19913;-84
2022/10/05 00:17:53;;;;;;;;;;;;;;;15.30;100.00;-16607.16;4991295;28;19928;-82
2022/10/05 00:20:23;;;;;;;;;;;;;;;15.28;100.00;-17595.53;5018839;28;19921;-84
2022/10/05 00:23:03;;;;;;;;;;;;;;;15.30;100.00;-18584.25;5028588;28;19921;-82
2022/10/05 00:25:29;;;;;;;;;;;;;;;15.28;100.00;-19571.97;5012745;28;19917;-84
2022/10/05 00:28:00;;;;;;;;;;;;;;;15.23;100.00;-19900.28;5030540;28;19928;-85
2022/10/05 00:30:34;;;;;;;;;;;;;;;15.24;100.00;-20558.97;5025610;28;20023;-84
2022/10/05 00:33:12;;;;;;;;;;;;;;;15.25;100.00;-21217.56;5016476;28;19933;-84
2022/10/05 00:35:38;;;;;;;;;;;;;;;15.22;100.00;-21875.13;5003313;28;20012;-80
2022/10/05 00:38:04;;;;;;;;;;;;;;;15.21;100.00;-22533.00;4995804;28;19921;-79
2022/10/05 00:40:32;;;;;;;;;;;;;;;15.19;100.00;-22861.53;4980146;28;19972;-79
2022/10/05 00:42:59;;;;;;;;;;;;;;;15.21;100.00;-23519.97;4997492;28;19924;-78
2022/10/05 00:45:28;;;;;;;;;;;;;;;15.22;100.00;-23191.38;5019201;28;19920;-79
2022/10/05 00:48:25;;;;;;;;;;;;;;;15.26;100.00;-22205.16;5019731;28;20384;-79
2022/10/05 00:51:06;;;;;;;;;;;;;;;15.21;100.00;-21216.78;5035644;28;20036;-79
2022/10/05 00:53:52;;;;;;;;;;;;;;;15.20;100.00;-20229.03;5014101;28;19921;-80
2022/10/05 00:56:28;;;;;;;;;;;;;;;15.17;100.00;-18911.25;5019152;28;19924;-79
2022/10/05 00:59:15;;;;;;;;;;;;;;;15.18;100.00;-18252.72;5031113;28;19975;-80
2022/10/05 01:02:03;;;;;;;;;;;;;;;15.18;100.00;-17264.53;5014689;28;20023;-79
2022/10/05 01:04:35;;;;;;;;;;;;;;;15.15;100.00;-17263.97;5024437;28;19960;-79
2022/10/05 01:07:07;;;;;;;;;;;;;;;15.18;100.00;-18252.81;5038794;28;19944;-79
2022/10/05 01:09:51;;;;;;;;;;;;;;;15.20;100.00;-19241.13;5030990;28;19928;-79
2022/10/05 01:12:30;;;;;;;;;;;;;;;15.12;100.00;-20556.44;5016801;28;19925;-80
2022/10/05 01:15:25;;;;;;;;;;;;;;;15.08;100.00;-22201.13;5017664;28;19917;-79
2022/10/05 01:18:00;;;;;;;;;;;;;;;15.11;100.00;-24504.03;5015240;28;19921;-79
2022/10/05 01:20:38;;;;;;;;;;;;;;;15.10;100.00;-25490.03;5010283;28;20023;-79
2022/10/05 01:23:24;;;;;;;;;;;;;;;15.04;100.00;-25490.38;5001628;28;19918;-80
2022/10/05 01:25:59;;;;;;;;;;;;;;;15.03;100.00;-25490.09;5027790;28;19961;-79
2022/10/05 01:28:34;;;;;;;;;;;;;;;14.98;100.00;-25488.63;5030231;28;20389;-79
2022/10/05 01:31:17;;;;;;;;;;;;;;;15.02;100.00;-25489.66;5011053;28;19953;-79
2022/10/05 01:34:12;;;;;;;;;;;;;;;15.02;100.00;-25489.78;5017440;28;20395;-78
2022/10/05 01:37:16;;;;;;;;;;;;;;;14.98;100.00;-25488.63;5016884;28;19933;-80
2022/10/05 01:39:43;;;;;;;;;;;;;;;14.96;100.00;-25487.91;4969835;28;19926;-79
2022/10/05 01:42:14;;;;;;;;;;;;;;;14.97;100.00;-25488.19;4977673;28;19971;-79
2022/10/05 01:44:59;;;;;;;;;;;;;;;14.95;100.00;-25487.75;4995134;28;19914;-80
2022/10/05 01:47:48;;;;;;;;;;;;;;;14.94;100.00;-25487.47;4978047;28;19917;-79
2022/10/05 01:50:32;;;;;;;;;;;;;;;14.95;100.00;-25487.75;4976755;28;19914;-80
2022/10/05 01:53:38;;;;;;;;;;;;;;;14.91;100.00;-25486.59;4994957;28;20008;-79
2022/10/05 01:56:23;;;;;;;;;;;;;;;14.89;100.00;-25486.00;4937237;29;19919;-79
2022/10/05 01:59:14;;;;;;;;;;;;;;;14.88;100.00;-25485.72;4937459;29;19930;-79
2022/10/05 02:01:40;;;;;;;;;;;;;;;14.87;100.00;-25485.44;4987271;28;20502;-79
2022/10/05 02:04:27;;;;;;;;;;;;;;;14.87;100.00;-25485.44;5016347;28;19917;-79
2022/10/05 02:06:54;;;;;;;;;;;;;;;14.86;100.00;-25485.13;4985927;28;19921;-79
2022/10/05 02:09:42;;;;;;;;;;;;;;;14.84;100.00;-25484.56;4975710;28;19922;-79
2022/10/05 02:12:15;;;;;;;;;;;;;;;14.84;100.00;-25484.56;4995160;28;19987;-79
2022/10/05 02:14:42;;;;;;;;;;;;;;;14.86;100.00;-25485.13;4982199;28;19925;-81
2022/10/05 02:17:18;;;;;;;;;;;;;;;14.84;100.00;-25484.56;4998652;28;20433;-80
2022/10/05 02:19:45;;;;;;;;;;;;;;;14.82;100.00;-25483.97;4979211;28;19965;-79
2022/10/05 02:22:38;;;;;;;;;;;;;;;14.75;100.00;-25482.06;4999843;28;19914;-83
2022/10/05 02:25:14;;;;;;;;;;;;;;;14.69;100.00;-25480.47;4978526;28;19926;-79
2022/10/05 02:27:45;;;;;;;;;;;;;;;14.69;100.00;-25480.31;5006892;28;19936;-83
2022/10/05 02:30:11;;;;;;;;;;;;;;;14.70;100.00;-25480.63;5007527;28;20285;-83
2022/10/05 02:32:43;;;;;;;;;;;;;;;14.71;100.00;-25481.06;5022528;28;19917;-80
2022/10/05 02:35:14;;;;;;;;;;;;;;;14.70;100.00;-25480.63;5007787;28;19917;-86
2022/10/05 02:37:46;;;;;;;;;;;;;;;14.70;100.00;-25480.63;4993377;28;19917;-84
2022/10/05 02:40:29;;;;;;;;;;;;;;;14.72;100.00;-25481.19;4997878;28;20267;-86
2022/10/05 02:43:19;;;;;;;;;;;;;;;14.74;100.00;-25481.63;5028093;28;19972;-84
2022/10/05 02:45:47;;;;;;;;;;;;;;;14.74;100.00;-25481.63;5008094;28;19917;-83
2022/10/05 02:48:29;;;;;;;;;;;;;;;14.74;100.00;-25481.78;5025841;28;19918;-84
2022/10/05 02:51:13;;;;;;;;;;;;;;;14.77;100.00;-25482.50;5041870;28;19917;-79
2022/10/05 02:53:42;;;;;;;;;;;;;;;14.75;100.00;-25481.94;5017216;28;19945;-80
2022/10/05 02:56:26;;;;;;;;;;;;;;;14.75;100.00;-25482.06;4999577;28;19917;-82
2022/10/05 02:59:10;;;;;;;;;;;;;;;14.71;100.00;-25481.06;4992756;28;19921;-80
2022/10/05 03:01:50;;;;;;;;;;;;;;;14.72;100.00;-25481.19;4995432;28;19921;-78
2022/10/05 03:04:28;;;;;;;;;;;;;;;14.72;100.00;-25481.34;4978733;28;19918;-80
2022/10/05 03:07:17;;;;;;;;;;;;;;;14.74;100.00;-25481.78;4996039;28;19918;-81
2022/10/05 03:10:16;;;;;;;;;;;;;;;14.76;100.00;-25482.22;4984224;28;19920;-79
2022/10/05 03:13:00;;;;;;;;;;;;;;;14.74;100.00;-25481.63;5001226;28;19928;-80
2022/10/05 03:15:25;;;;;;;;;;;;;;;14.76;100.00;-25482.38;5000844;28;19925;-80
2022/10/05 03:18:09;;;;;;;;;;;;;;;14.75;100.00;-25482.06;5017520;28;19921;-79
2022/10/05 03:20:42;;;;;;;;;;;;;;;14.71;100.00;-25481.06;4994031;28;20016;-79
2022/10/05 03:23:22;;;;;;;;;;;;;;;14.75;100.00;-25482.06;4977957;28;19925;-79
2022/10/05 03:26:08;;;;;;;;;;;;;;;14.75;100.00;-25482.06;4978360;28;19922;-77
2022/10/05 03:28:53;;;;;;;;;;;;;;;14.75;100.00;-25481.94;4994806;28;19925;-80
2022/10/05 03:31:46;;;;;;;;;;;;;;;14.81;100.00;-25483.69;4995049;28;19917;-80
2022/10/05 03:34:14;;;;;;;;;;;;;;;14.81;100.00;-25483.69;4982585;28;19921;-79
2022/10/05 03:37:03;;;;;;;;;;;;;;;14.79;100.00;-25483.09;5022156;28;19917;-79
2022/10/05 03:40:08;;;;;;;;;;;;;;;14.74;100.00;-25481.78;5017047;28;19932;-78
2022/10/05 03:42:47;;;;;;;;;;;;;;;14.79;100.00;-25483.25;4954421;29;19958;-79
2022/10/05 03:45:30;;;;;;;;;;;;;;;14.74;100.00;-25481.78;4938431;29;20013;-80
2022/10/05 03:48:07;;;;;;;;;;;;;;;14.77;100.00;-25482.50;4974934;28;19924;-80
2022/10/05 03:50:35;;;;;;;;;;;;;;;14.81;100.00;-25483.69;5029098;28;20322;-78
2022/10/05 03:53:21;;;;;;;;;;;;;;;14.76;100.00;-25482.38;4999014;28;19921;-80
2022/10/05 03:55:50;;;;;;;;;;;;;;;14.76;100.00;-25482.22;5000098;28;19917;-79
2022/10/05 03:58:31;;;;;;;;;;;;;;;14.76;100.00;-25482.22;5015712;28;19925;-80
2022/10/05 04:01:00;;;;;;;;;;;;;;;14.75;100.00;-25481.94;5000356;28;19986;-79
2022/10/05 04:03:30;;;;;;;;;;;;;;;14.75;100.00;-25481.94;5006648;28;19918;-78
2022/10/05 04:06:00;;;;;;;;;;;;;;;14.72;100.00;-25481.34;5021354;28;19917;-80
2022/10/05 04:08:33;;;;;;;;;;;;;;;14.69;100.00;-25480.47;5020765;28;19940;-79
2022/10/05 04:11:01;;;;;;;;;;;;;;;14.71;100.00;-25481.06;5022904;28;19918;-80
2022/10/05 04:13:44;;;;;;;;;;;;;;;14.71;100.00;-25481.06;5022735;28;20007;-81
2022/10/05 04:16:36;;;;;;;;;;;;;;;14.70;100.00;-25480.63;5038328;28;19921;-81
2022/10/05 04:19:39;;;;;;;;;;;;;;;14.67;100.00;-25479.75;5041169;28;19928;-79
2022/10/05 04:22:05;;;;;;;;;;;;;;;14.71;100.00;-25481.06;5000036;28;19925;-84
2022/10/05 04:24:36;;;;;;;;;;;;;;;14.70;100.00;-25480.63;5017447;28;20317;-82
2022/10/05 04:27:05;;;;;;;;;;;;;;;14.69;100.00;-25480.47;5026915;28;19921;-80
2022/10/05 04:29:49;;;;;;;;;;;;;;;14.69;100.00;-25480.31;5010033;28;19927;-79
2022/10/05 04:32:20;;;;;;;;;;;;;;;14.69;100.00;-25480.47;5024449;28;19921;-82
2022/10/05 04:34:52;;;;;;;;;;;;;;;14.70;100.00;-25480.75;5027751;28;19917;-79
2022/10/05 04:37:22;;;;;;;;;;;;;;;14.70;100.00;-25480.75;5046193;28;19928;-83
2022/10/05 04:40:16;;;;;;;;;;;;;;;14.71;100.00;-25478.97;5049615;28;19928;-84
2022/10/05 04:42:46;;;;;;;;;;;;;;;14.70;100.00;-24493.19;5029221;28;20427;-84
2022/10/05 04:45:31;;;;;;;;;;;;;;;14.70;100.00;-24164.56;5027936;28;19921;-81
2022/10/05 04:48:15;;;;;;;;;;;;;;;14.70;100.00;-23178.56;5029629;28;19980;-83
2022/10/05 04:50:44;;;;;;;;;;;;;;;14.64;100.00;-22848.34;5028433;28;19921;-83
2022/10/05 04:53:17;;;;;;;;;;;;;;;14.69;100.00;-22849.47;5031286;28;19917;-83
2022/10/05 04:55:52;;;;;;;;;;;;;;;14.68;100.00;-22849.34;5031635;28;19918;-83
2022/10/05 04:58:29;;;;;;;;;;;;;;;14.66;100.00;-22848.72;5025829;28;19917;-84
2022/10/05 05:00:57;;;;;;;;;;;;;;;14.61;100.00;-23176.28;5009703;28;19924;-79
2022/10/05 05:03:45;;;;;;;;;;;;;;;14.64;100.00;-22848.34;5029038;28;20594;-84
2022/10/05 05:06:33;;;;;;;;;;;;;;;14.61;100.00;-22847.47;5029644;28;19928;-82
2022/10/05 05:09:21;;;;;;;;;;;;;;;14.57;100.00;-23175.25;5024465;28;19928;-83
2022/10/05 05:12:07;;;;;;;;;;;;;;;14.57;100.00;-22846.59;5024510;28;19917;-80
2022/10/05 05:15:06;;;;;;;;;;;;;;;14.53;100.00;-22517.06;5024376;28;20024;-81
2022/10/05 05:17:57;;;;;;;;;;;;;;;14.58;100.00;-22189.44;4980622;28;19921;-83
2022/10/05 05:20:35;;;;;;;;;;;;;;;14.59;100.00;-21532.03;5041211;28;19924;-80
2022/10/05 05:23:06;;;;;;;;;;;;;;;14.58;100.00;-21531.94;5026553;28;19917;-82
2022/10/05 05:25:52;;;;;;;;;;;;;;;14.61;100.00;-21532.50;5044988;28;20346;-80
2022/10/05 05:28:47;;;;;;;;;;;;;;;14.64;100.00;-21204.47;5040638;28;19956;-81
2022/10/05 05:31:31;;;;;;;;;;;;;;;14.63;100.00;-20875.38;5024199;28;19935;-79
2022/10/05 05:34:25;;;;;;;;;;;;;;;14.61;100.00;-20546.09;5019997;28;19921;-82
2022/10/05 05:36:57;;;;;;;;;;;;;;;14.61;100.00;-20546.09;5026845;28;19931;-84
2022/10/05 05:39:25;;;;;;;;;;;;;;;14.65;100.00;-20546.81;5038429;28;19929;-84
2022/10/05 05:42:16;;;;;;;;;;;;;;;14.63;100.00;-20546.50;5006114;28;20342;-84
2022/10/05 05:44:54;;;;;;;;;;;;;;;14.66;100.00;-21204.81;5016906;28;20583;-81
2022/10/05 05:47:42;;;;;;;;;;;;;;;14.67;100.00;-21205.13;4982618;28;20413;-81
2022/10/05 05:50:32;;;;;;;;;;;;;;;14.76;100.00;-21864.66;5017088;28;19925;-80
2022/10/05 05:53:15;;;;;;;;;;;;;;;14.72;100.00;-21535.13;4998990;28;20313;-82
2022/10/05 05:56:06;;;;;;;;;;;;;;;14.74;100.00;-21535.47;5017435;28;19924;-82
2022/10/05 05:58:37;;;;;;;;;;;;;;;14.74;100.00;-21535.47;4999159;28;20378;-81
2022/10/05 06:01:42;;;;;;;;;;;;;;;14.82;100.00;-21866.06;4999762;28;19922;-81
2022/10/05 06:04:09;;;;;;;;;;;;;;;14.80;100.00;-22523.41;5016017;28;19932;-80
2022/10/05 06:06:49;;;;;;;;;;;;;;;14.81;100.00;-22523.66;5015502;28;20306;-82
2022/10/05 06:10:00;;;;;;;;;;;;;;;14.81;100.00;-23181.22;5008751;28;20495;-81
2022/10/05 06:13:08;;;;;;;;;;;;;;;14.83;100.00;-23510.38;5014991;28;19922;-81
2022/10/05 06:16:18;;;;;;;;;;;;;;;14.83;100.00;-23181.75;4995834;28;19963;-79
2022/10/05 06:18:53;;;;;;;;;;;;;;;14.87;100.00;-22853.81;4996217;28;19918;-81
2022/10/05 06:21:52;;;;;;;;;;;;;;;14.89;100.00;-22854.44;4996260;28;20008;-83
2022/10/05 06:24:42;;;;;;;;;;;;;;;14.91;100.00;-23183.66;4953128;29;19919;-81
2022/10/05 06:27:30;;;;;;;;;;;;;;;14.94;100.00;-23184.41;4998650;28;19923;-83
2022/10/05 06:30:21;;;;;;;;;;;;;;;14.89;100.00;-22854.44;5035605;28;19917;-81
2022/10/05 06:33:32;;;;;;;;;;;;;;;14.93;100.00;-23512.84;5034839;28;19921;-81
2022/10/05 06:36:26;;;;;;;;;;;;;;;14.94;100.00;-23842.00;5035484;28;19917;-81
2022/10/05 06:39:36;;;;;;;;;;;;;;;14.96;100.00;-23513.75;5035265;28;19924;-81
2022/10/05 06:42:24;;;;;;;;;;;;;;;15.02;100.00;-23186.31;4946971;28;19961;-80
2022/10/05 06:45:15;;;;;;;;;;;;;;;14.97;100.00;-23185.16;5024642;28;19922;-81
2022/10/05 06:48:10;;;;;;;;;;;;;;;15.01;100.00;-23186.19;5014460;28;19972;-83
2022/10/05 06:51:04;;;;;;;;;;;;;;;15.07;100.00;-23516.59;5015706;28;19918;-80
2022/10/05 06:53:32;;;;;;;;;;;;;;;15.03;100.00;-23515.44;4997500;28;19975;-82
2022/10/05 06:56:17;;;;;;;;;;;;;;;15.03;100.00;-23844.41;5030457;28;19917;-81
2022/10/05 06:59:11;;;;;;;;;;;;;;;15.05;100.00;-23844.91;5030039;28;19917;-82
2022/10/05 07:01:59;;;;;;;;;;;;;;;15.05;100.00;-23844.78;5013540;28;19932;-82
2022/10/05 07:04:42;;;;;;;;;;;;;;;15.07;100.00;-24174.28;4994918;28;19925;-80
2022/10/05 07:08:01;;;;;;;;;;;;;;;15.08;100.00;-24174.56;4993836;28;19918;-81
2022/10/05 07:11:14;;;;;;;;;;;;;;;15.10;100.00;-23517.13;4994995;28;19925;-82
2022/10/05 07:14:17;;;;;;;;;;;;;;;15.13;100.00;-24175.75;5010694;28;19964;-83
2022/10/05 07:17:06;;;;;;;;;;;;;;;15.06;100.00;-24174.00;4944912;28;19924;-83
2022/10/05 07:19:34;;;;;;;;;;;;;;;15.06;100.00;-24502.81;4996959;28;19932;-83
2022/10/05 07:22:06;;;;;;;;;;;;;;;15.08;100.00;-24503.34;4994674;28;19967;-84
2022/10/05 07:25:03;;;;;;;;;;;;;;;15.10;100.00;-24832.56;4995442;28;19918;-83
2022/10/05 07:28:05;;;;;;;;;;;;;;;15.08;100.00;-24503.34;5098379;27;2081437;-83
2022/10/05 07:30:37;;;;;;;;;;;;;;;15.13;100.00;-24175.63;5154661;27;19919;-83
2022/10/05 07:33:14;;;;;;;;;;;;;;;15.05;100.00;-24502.41;5156056;27;19915;-84
2022/10/05 07:39:00;;;;;;;;;;;;;;;15.08;100.00;-25160.88;5137275;27;19978;-83
2022/10/05 07:41:31;;;;;;;;;;;;;;;15.13;100.00;-25162.19;5127502;27;20507;-80
2022/10/05 07:44:03;;;;;;;;;;;;;;;15.10;100.00;-25161.31;5152019;27;20037;-82
2022/10/05 07:46:31;;;;;;;;;;;;;;;15.18;100.00;-25492.22;5154311;27;19916;-82
2022/10/05 07:49:03;;;;;;;;;;;;;;;15.15;100.00;-25162.75;5150120;27;19919;-81
2022/10/05 07:51:32;;;;;;;;;;;;;;;15.14;100.00;-25162.31;5151424;27;19968;-82
2022/10/05 07:54:17;;;;;;;;;;;;;;;15.16;100.00;-25162.88;5153947;27;19915;-81
2022/10/05 07:56:47;;;;;;;;;;;;;;;15.20;100.00;-24835.38;5155931;27;20380;-83
2022/10/05 07:59:20;;;;;;;;;;;;;;;15.16;100.00;-24505.28;5155630;27;19979;-84
2022/10/05 08:01:50;;;;;;;;;;;;;;;15.20;100.00;-24506.38;5144477;27;19923;-83
2022/10/05 08:04:47;;;;;;;;;;;;;;;15.19;100.00;-25163.88;5144313;27;19927;-84
2022/10/05 08:07:17;;;;;;;;;;;;;;;15.21;100.00;-25164.47;5153206;27;19915;-83
2022/10/05 08:10:01;;;;;;;;;;;;;;;15.26;100.00;-24836.91;5152753;27;19922;-84
2022/10/05 08:12:53;;;;;;;;;;;;;;;15.33;100.00;-24509.81;5151642;27;19990;-84
2022/10/05 08:15:24;;;;;;;;;;;;;;;15.26;100.00;-23850.34;5152427;27;20453;-81
2022/10/05 08:18:01;;;;;;;;;;;;;;;15.26;100.00;-23850.34;5143487;27;20304;-83
2022/10/05 08:20:49;;;;;;;;;;;;;;;15.26;100.00;-23521.25;5136619;27;19920;-82
2022/10/05 08:23:15;;;;;;;;;;;;;;;15.30;100.00;-22864.13;5135618;27;20534;-81
2022/10/05 08:25:51;;;;;;;;;;;;;;;15.31;100.00;-23193.53;5135425;27;19916;-82
2022/10/05 08:28:22;;;;;;;;;;;;;;;15.27;100.00;-22863.50;5127264;28;20415;-81
2022/10/05 08:30:51;;;;;;;;;;;;;;;15.28;100.00;-22205.63;5131440;28;19920;-82
2022/10/05 08:33:19;;;;;;;;;;;;;;;15.33;100.00;-22535.94;5131673;28;20402;-82
2022/10/05 08:35:49;;;;;;;;;;;;;;;15.30;100.00;-21876.88;5132497;27;19951;-84
2022/10/05 08:38:22;;;;;;;;;;;;;;;15.41;100.00;-21879.53;5124320;28;19920;-84
2022/10/05 08:40:54;;;;;;;;;;;;;;;15.58;100.00;-21553.97;5118243;28;20359;-83
2022/10/05 08:43:38;;;;;;;;;;;;;;;15.64;100.00;-19578.81;5117767;28;20014;-81
2022/10/05 08:46:22;;;;;;;;;;;;;;;15.72;100.00;-17932.16;5118344;28;19923;-84
2022/10/05 08:48:56;;;;;;;;;;;;;;;15.73;100.00;-16283.56;5118541;28;19920;-81
2022/10/05 08:51:24;;;;;;;;;;;;;;;15.82;100.00;-14634.94;5116637;28;20022;-82
2022/10/05 08:54:00;;;;;;;;;;;;;;;15.93;100.00;-13976.03;5116740;28;19922;-82
2022/10/05 08:56:36;;;;;;;;;;;;;;;15.87;100.00;-11663.94;5118735;28;19937;-84
2022/10/05 08:59:23;;;;;;;;;;;;;;;16.00;100.00;-10012.50;5102103;22;19935;-84
2022/10/05 09:01:58;;;;;;;;;;;;;;;16.09;100.00;-8359.66;5060508;28;19916;-84
2022/10/05 09:04:52;;;;;;;;;;;;;;;16.26;100.00;-6374.56;5059798;28;20318;-83
2022/10/05 09:07:21;;;;;;;;;;;;;;;16.25;100.00;-4388.28;5059533;28;19917;-84
2022/10/05 09:10:06;;;;;;;;;;;;;;;16.40;100.00;-3725.06;5059577;28;19917;-85
2022/10/05 09:13:06;;;;;;;;;;;;;;;;;;;;;
2022/10/05 09:15:40;;;;;;;;;;;;;;;16.26;100.00;-1406.84;5075526;28;20360;-84
2022/10/05 09:18:33;;;;;;;;;;;;;;;16.28;100.00;-2069.38;5058249;28;19985;-85
2022/10/05 09:21:11;;;;;;;;;;;;;;;16.45;100.00;-2399.28;5057198;28;20010;-83
2022/10/05 09:23:43;;;;;;;;;;;;;;;16.55;100.00;-740.88;5057421;28;20396;-85
2022/10/05 09:26:29;;;;;;;;;;;;;;;16.45;100.00;916.28;5058158;28;19920;-85
2022/10/05 09:29:10;;;;;;;;;;;;;;;16.53;100.00;2908.25;5074219;28;19921;-82
2022/10/05 09:31:55;;;;;;;;;;;;;;;16.28;100.00;6223.41;5058995;28;19916;-82
2022/10/05 09:34:24;;;;;;;;;;;;;;;16.42;100.00;6890.75;5059135;28;19917;-82
2022/10/05 09:37:09;;;;;;;;;;;;;;;16.36;100.00;10544.72;5058155;28;20121;-83
2022/10/05 09:39:40;;;;;;;;;;;;;;;16.44;100.00;10879.75;5044717;28;19963;-83
2022/10/05 09:42:06;;;;;;;;;;;;;;;16.38;100.00;11542.91;5059266;28;19994;-83
2022/10/05 09:44:50;;;;;;;;;;;;;;;16.40;100.00;9548.69;5058669;28;19917;-81
2022/10/05 09:47:31;;;;;;;;;;;;;;;16.47;100.00;8221.06;5059126;28;19916;-83
2022/10/05 09:50:11;;;;;;;;;;;;;;;16.52;100.00;6560.75;5057225;28;19916;-83
2022/10/05 09:52:53;;;;;;;;;;;;;;;16.50;100.00;8221.69;5057160;28;19917;-83
2022/10/05 09:55:43;;;;;;;;;;;;;;;16.42;100.00;7555.22;5058975;28;19970;-84
2022/10/05 09:58:29;;;;;;;;;;;;;;;16.42;100.00;5894.31;5058017;28;19924;-84
2022/10/05 10:01:15;;;;;;;;;;;;;;;16.34;100.00;4896.47;5058963;28;20028;-83
2022/10/05 10:04:11;;;;;;;;;;;;;;;;;;;;;
2022/10/05 10:06:51;;;;;;;;;;;;;;;16.32;100.00;2573.06;5075261;28;20410;-85
2022/10/05 10:09:44;;;;;;;;;;;;;;;16.35;100.00;1909.94;5057096;28;19955;-80
2022/10/05 10:12:29;;;;;;;;;;;;;;;16.30;100.00;582.59;5035918;28;19928;-80
2022/10/05 10:15:13;;;;;;;;;;;;;;;16.32;100.00;-1074.72;5074862;28;19917;-78
2022/10/05 10:17:50;;;;;;;;;;;;;;;16.25;100.00;-2069.63;5058770;28;19920;-80
2022/10/05 10:20:19;;;;;;;;;;;;;;;16.24;100.00;-3726.03;5054455;28;19952;-80
2022/10/05 10:22:48;;;;;;;;;;;;;;;16.21;100.00;-5050.66;5037600;28;19922;-80
2022/10/05 10:25:26;;;;;;;;;;;;;;;16.22;100.00;-7036.47;5037966;28;19940;-81
2022/10/05 10:28:11;;;;;;;;;;;;;;;16.19;100.00;-8029.00;5037284;28;20082;-80
2022/10/05 10:30:50;;;;;;;;;;;;;;;16.26;100.00;-10344.13;5039188;28;19929;-80
2022/10/05 10:33:39;;;;;;;;;;;;;;;16.12;100.00;-11335.09;5052495;28;19952;-81
2022/10/05 10:36:25;;;;;;;;;;;;;;;16.27;100.00;-12327.50;5056576;28;20357;-81
2022/10/05 10:39:12;;;;;;;;;;;;;;;16.19;100.00;-12987.63;5057103;28;20019;-81
2022/10/05 10:41:44;;;;;;;;;;;;;;;16.24;100.00;-13648.78;5057596;28;19928;-81
2022/10/05 10:44:29;;;;;;;;;;;;;;;16.21;100.00;-14639.34;5053006;28;19939;-80
2022/10/05 10:47:14;;;;;;;;;;;;;;;16.24;100.00;-15630.25;5056299;28;19972;-80
2022/10/05 10:49:57;;;;;;;;;;;;;;;16.36;100.00;-16622.34;5054723;28;19917;-80
2022/10/05 10:52:42;;;;;;;;;;;;;;;16.46;100.00;-16293.59;5051131;28;19971;-79
2022/10/05 10:55:26;;;;;;;;;;;;;;;16.48;100.00;-15303.00;5047483;28;19920;-77
2022/10/05 10:58:06;;;;;;;;;;;;;;;16.54;100.00;-13651.63;5050237;28;19921;-76
2022/10/05 11:00:53;;;;;;;;;;;;;;;16.62;100.00;-13321.91;5069154;28;19920;-76
2022/10/05 11:03:31;;;;;;;;;;;;;;;16.58;100.00;-11999.13;5079272;28;19931;-78
2022/10/05 11:05:56;;;;;;;;;;;;;;;16.67;100.00;-11999.75;5060693;28;19917;-78
2022/10/05 11:08:27;;;;;;;;;;;;;;;16.64;100.00;-11338.13;5051111;28;19928;-73
2022/10/05 11:10:57;;;;;;;;;;;;;;;16.57;100.00;-10676.28;5057339;28;19920;-78
2022/10/05 11:13:23;;;;;;;;;;;;;;;16.68;100.00;-10676.81;5071240;28;19971;-77
2022/10/05 11:15:59;;;;;;;;;;;;;;;16.59;100.00;-10014.75;5072023;28;19916;-78
2022/10/05 11:18:25;;;;;;;;;;;;;;;16.59;100.00;-9353.06;5071243;28;19916;-78
2022/10/05 11:21:08;;;;;;;;;;;;;;;16.65;100.00;-8360.34;5070207;28;19942;-77
2022/10/05 11:23:59;;;;;;;;;;;;;;;16.68;100.00;-9022.38;5068790;28;19969;-78
2022/10/05 11:26:25;;;;;;;;;;;;;;;16.62;100.00;-8029.31;5070935;28;19918;-78
2022/10/05 11:29:10;;;;;;;;;;;;;;;16.73;100.00;-8360.44;5064411;28;20357;-78
2022/10/05 11:31:39;;;;;;;;;;;;;;;16.79;100.00;-8360.50;5051526;28;20365;-78
2022/10/05 11:34:27;;;;;;;;;;;;;;;16.93;100.00;-9354.00;5051423;28;20510;-78
2022/10/05 11:37:12;;;;;;;;;;;;;;;16.80;100.00;-6704.75;5052864;28;20015;-78
2022/10/05 11:39:54;;;;;;;;;;;;;;;16.79;100.00;-6704.78;5065723;28;19926;-78
2022/10/05 11:42:22;;;;;;;;;;;;;;;16.91;100.00;-7367.09;5071299;28;19920;-78
2022/10/05 11:45:02;;;;;;;;;;;;;;;16.93;100.00;-6041.94;5071403;28;19927;-78
2022/10/05 11:47:32;;;;;;;;;;;;;;;16.96;100.00;-5379.09;5070882;28;19916;-78
2022/10/05 11:49:58;;;;;;;;;;;;;;;16.86;100.00;-4053.72;5066372;28;19921;-78
2022/10/05 11:52:50;;;;;;;;;;;;;;;16.95;100.00;-5047.66;5067919;28;20024;-78
2022/10/05 11:55:39;;;;;;;;;;;;;;;16.97;100.00;-5047.59;5070220;28;19920;-80
2022/10/05 11:58:10;;;;;;;;;;;;;;;16.91;100.00;-4053.47;5042446;28;20332;-78
2022/10/05 12:00:36;;;;;;;;;;;;;;;16.95;100.00;-2726.88;5071156;28;19975;-82
2022/10/05 12:03:26;;;;;;;;;;;;;;;16.97;100.00;-1068.09;5071799;28;19962;-80
2022/10/05 12:06:11;;;;;;;;;;;;;;;17.08;100.00;-1398.81;5071208;28;19934;-80
2022/10/05 12:08:59;;;;;;;;;;;;;;;17.11;100.00;-734.78;5067960;28;20024;-80
2022/10/05 12:11:52;;;;;;;;;;;;;;;17.15;100.00;-402.41;5067341;28;19971;-80
2022/10/05 12:14:39;;;;;;;;;;;;;;;17.08;100.00;-71.25;5074031;28;19925;-81
2022/10/05 12:17:10;;;;;;;;;;;;;;;17.11;100.00;-734.72;5074322;28;19920;-80
2022/10/05 12:19:40;;;;;;;;;;;;;;;17.12;100.00;-1066.56;5074522;28;19959;-79
2022/10/05 12:22:09;;;;;;;;;;;;;;;17.01;100.00;-403.97;5069322;28;19947;-76
2022/10/05 12:24:37;;;;;;;;;;;;;;;17.07;100.00;-71.34;5072448;28;19916;-78
2022/10/05 12:27:25;;;;;;;;;;;;;;;17.08;100.00;-71.28;5073717;28;20003;-78
2022/10/05 12:29:51;;;;;;;;;;;;;;;17.08;100.00;260.72;5072027;28;19931;-76
2022/10/05 12:32:17;;;;;;;;;;;;;;;17.11;100.00;-70.88;5073911;28;19916;-78
2022/10/05 12:34:42;;;;;;;;;;;;;;;17.15;100.00;-734.28;5074382;28;19916;-77
2022/10/05 12:37:26;;;;;;;;;;;;;;;17.18;100.00;-1397.81;5073808;28;19990;-77
2022/10/05 12:40:10;;;;;;;;;;;;;;;17.43;100.00;-1727.34;5074137;28;20011;-78
2022/10/05 12:43:03;;;;;;;;;;;;;;;17.29;100.00;595.38;5073733;28;19917;-76
2022/10/05 12:45:42;;;;;;;;;;;;;;;17.33;100.00;928.13;5035996;28;19920;-79
2022/10/05 12:48:24;;;;;;;;;;;;;;;17.36;100.00;264.19;5073913;28;19917;-79
2022/10/05 12:50:53;;;;;;;;;;;;;;;17.32;100.00;1592.34;5073923;28;19916;-77
2022/10/05 12:53:23;;;;;;;;;;;;;;;17.34;100.00;1592.66;5073379;28;19920;-77
2022/10/05 12:55:54;;;;;;;;;;;;;;;17.20;100.00;2919.47;5074615;28;19924;-78
2022/10/05 12:58:35;;;;;;;;;;;;;;;17.22;100.00;2255.31;5066611;28;19921;-78
2022/10/05 13:01:24;;;;;;;;;;;;;;;17.30;100.00;1259.78;5037045;28;19916;-78
2022/10/05 13:04:08;;;;;;;;;;;;;;;17.26;100.00;927.16;5055587;28;19928;-75
2022/10/05 13:06:45;;;;;;;;;;;;;;;17.31;100.00;595.63;5055987;28;19920;-78
2022/10/05 13:09:13;;;;;;;;;;;;;;;17.40;100.00;596.91;5056992;28;19916;-77
2022/10/05 13:11:40;;;;;;;;;;;;;;;17.45;100.00;597.44;5048805;28;19916;-78
2022/10/05 13:14:30;;;;;;;;;;;;;;;17.37;100.00;1260.81;5043052;28;19927;-82
2022/10/05 13:17:17;;;;;;;;;;;;;;;17.31;100.00;3253.59;5076436;28;19924;-81
2022/10/05 13:20:26;;;;;;;;;;;;;;;17.28;100.00;3253.06;5076624;28;19964;-81
2022/10/05 13:23:13;;;;;;;;;;;;;;;17.46;100.00;2258.91;5056470;28;19912;-81
2022/10/05 13:25:43;;;;;;;;;;;;;;;17.44;100.00;3588.13;5076146;28;19974;-80
2022/10/05 13:28:19;;;;;;;;;;;;;;;17.44;100.00;4585.59;5042264;28;20015;-81
2022/10/05 13:30:51;;;;;;;;;;;;;;;17.29;100.00;5247.69;5075773;28;20279;-81
2022/10/05 13:33:16;;;;;;;;;;;;;;;17.30;100.00;4250.56;5041602;28;19963;-80
2022/10/05 13:36:14;;;;;;;;;;;;;;;17.27;100.00;5579.88;5057087;28;19971;-80
2022/10/05 13:39:00;;;;;;;;;;;;;;;17.28;100.00;5912.63;5062259;28;19916;-81
2022/10/05 13:41:54;;;;;;;;;;;;;;;17.45;100.00;5916.16;5072163;28;19952;-80
2022/10/05 13:45:04;;;;;;;;;;;;;;;17.53;100.00;8247.47;5076818;28;19923;-80